createdAt,value
2018-06-14T00:01:51.350Z,4.53
2018-06-14T00:04:21.715Z,2.87
2018-06-14T00:06:52.088Z,3.23
2018-06-14T00:09:29.779Z,4.13
2018-06-14T00:12:02.201Z,4.40
2018-06-14T00:14:32.576Z,3.97
2018-06-14T00:17:07.063Z,2.93
2018-06-14T00:19:37.433Z,3.60
2018-06-14T00:22:07.738Z,3.23
2018-06-14T00:24:41.200Z,3.80
2018-06-14T00:27:11.567Z,4.43
2018-06-14T00:30:01.343Z,3.93
2018-06-14T00:32:31.713Z,4.27
2018-06-14T00:35:02.076Z,3.90
2018-06-14T00:37:32.475Z,5.90
2018-06-14T00:40:03.617Z,3.87
2018-06-14T00:42:33.982Z,3.67
2018-06-14T00:45:04.376Z,3.83
2018-06-14T00:50:19.446Z,7.07
2018-06-14T00:52:49.815Z,3.10
2018-06-14T00:55:20.178Z,4.10
2018-06-14T00:58:09.946Z,3.60
2018-06-14T01:00:47.483Z,3.07
2018-06-14T01:03:17.816Z,5.27
2018-06-14T01:05:48.953Z,3.90
2018-06-14T01:08:19.264Z,4.57
2018-06-14T01:10:49.594Z,6.33
2018-06-14T01:13:19.966Z,3.33
2018-06-14T01:15:50.329Z,3.87
2018-06-14T01:18:20.999Z,3.73
2018-06-14T01:20:52.132Z,3.60
2018-06-14T01:23:22.494Z,3.57
2018-06-14T01:25:53.908Z,3.60
2018-06-14T01:28:25.299Z,4.43
2018-06-14T01:30:55.673Z,5.20
2018-06-14T01:33:26.067Z,3.97
2018-06-14T01:36:03.742Z,3.73
2018-06-14T01:38:34.146Z,5.27
2018-06-14T01:41:04.513Z,3.97
2018-06-14T01:43:39.009Z,4.03
2018-06-14T01:46:09.378Z,4.13
2018-06-14T01:48:39.959Z,3.80
2018-06-14T01:51:11.105Z,3.93
2018-06-14T01:53:42.245Z,3.97
2018-06-14T01:56:13.595Z,4.47
2018-06-14T01:58:44.996Z,4.57
2018-06-14T02:01:15.370Z,4.10
2018-06-14T02:03:46.505Z,4.03
2018-06-14T02:06:17.672Z,8.97
2018-06-14T02:08:48.040Z,4.37
2018-06-14T02:11:18.406Z,4.00
2018-06-14T02:13:49.563Z,6.07
2018-06-14T02:16:19.933Z,5.53
2018-06-14T02:18:50.306Z,4.27
2018-06-14T02:21:21.459Z,7.20
2018-06-14T02:23:51.829Z,3.70
2018-06-14T02:26:42.604Z,3.77
2018-06-14T02:29:12.972Z,3.80
2018-06-14T02:31:44.360Z,3.87
2018-06-14T02:34:15.511Z,5.60
2018-06-14T02:36:46.636Z,3.67
2018-06-14T02:39:18.481Z,5.43
2018-06-14T02:41:50.916Z,3.67
2018-06-14T02:44:25.379Z,3.73
2018-06-14T02:46:55.750Z,3.63
2018-06-14T02:49:26.149Z,4.00
2018-06-14T02:51:56.513Z,4.37
2018-06-14T02:54:26.884Z,3.80
2018-06-14T02:56:57.285Z,4.93
2018-06-14T02:59:34.961Z,6.30
2018-06-14T03:02:05.359Z,6.27
2018-06-14T03:04:36.493Z,3.70
2018-06-14T03:07:07.567Z,3.90
2018-06-14T03:09:37.968Z,4.00
2018-06-14T03:12:09.092Z,4.13
2018-06-14T03:14:39.459Z,5.17
2018-06-14T03:17:09.788Z,6.07
2018-06-14T03:19:40.131Z,3.30
2018-06-14T03:22:10.499Z,4.50
2018-06-14T03:24:40.896Z,4.87
2018-06-14T03:27:11.269Z,4.50
2018-06-14T03:29:42.408Z,5.00
2018-06-14T03:32:13.568Z,4.63
2018-06-14T03:34:43.932Z,4.73
2018-06-14T03:37:34.718Z,4.30
2018-06-14T03:40:06.112Z,4.93
2018-06-14T03:42:36.471Z,4.90
2018-06-14T03:45:06.865Z,5.47
2018-06-14T03:47:37.227Z,6.30
2018-06-14T03:50:07.601Z,8.37
2018-06-14T03:52:58.395Z,6.93
2018-06-14T03:55:48.137Z,5.60
2018-06-14T03:58:19.604Z,5.20
2018-06-14T04:00:49.929Z,4.87
2018-06-14T04:03:20.233Z,5.40
2018-06-14T04:05:51.391Z,5.60
2018-06-14T04:08:21.763Z,5.83
2018-06-14T04:10:52.129Z,5.90
2018-06-14T04:13:23.284Z,4.47
2018-06-14T04:15:53.651Z,6.67
2018-06-14T04:18:24.025Z,4.17
2018-06-14T04:20:55.129Z,5.57
2018-06-14T04:23:25.506Z,4.50
2018-06-14T04:25:55.829Z,8.20
2018-06-14T04:28:26.979Z,5.47
2018-06-14T04:30:57.347Z,6.67
2018-06-14T04:33:27.723Z,7.00
2018-06-14T04:35:58.056Z,4.03
2018-06-14T04:38:28.417Z,5.73
2018-06-14T04:40:59.806Z,5.00
2018-06-14T04:43:31.986Z,4.37
2018-06-14T04:46:03.059Z,6.23
2018-06-14T04:48:37.525Z,4.37
2018-06-14T04:51:07.912Z,4.20
2018-06-14T04:53:44.421Z,5.90
2018-06-14T04:59:03.144Z,7.57
2018-06-14T05:01:33.523Z,5.40
2018-06-14T05:04:03.884Z,4.47
2018-06-14T05:06:34.440Z,6.87
2018-06-14T05:09:24.216Z,5.17
2018-06-14T05:11:54.818Z,4.40
2018-06-14T05:14:25.887Z,5.80
2018-06-14T05:16:56.464Z,4.20
2018-06-14T05:19:27.611Z,4.03
2018-06-14T05:21:57.980Z,5.00
2018-06-14T05:24:28.373Z,4.80
2018-06-14T05:26:58.749Z,6.17
2018-06-14T05:29:30.131Z,5.80
2018-06-14T05:32:00.536Z,5.57
2018-06-14T05:34:50.271Z,4.37
2018-06-14T05:37:20.900Z,4.67
2018-06-14T05:39:52.040Z,5.40
2018-06-14T05:42:23.239Z,5.70
2018-06-14T05:44:54.339Z,6.63
2018-06-14T05:47:25.471Z,3.70
2018-06-14T05:49:56.605Z,6.97
2018-06-14T05:52:26.993Z,3.60
2018-06-14T05:55:18.724Z,4.77
2018-06-14T05:58:08.479Z,5.80
2018-06-14T06:00:38.860Z,4.33
2018-06-14T06:03:09.229Z,4.37
2018-06-14T06:05:39.564Z,4.17
2018-06-14T06:08:10.701Z,6.43
2018-06-14T06:10:41.080Z,5.20
2018-06-14T06:13:11.420Z,4.67
2018-06-14T06:15:42.554Z,3.93
2018-06-14T06:18:13.108Z,8.23
2018-06-14T06:20:43.500Z,5.13
2018-06-14T06:23:13.819Z,5.30
2018-06-14T06:25:44.127Z,4.50
2018-06-14T06:28:18.614Z,4.70
2018-06-14T06:30:48.986Z,5.63
2018-06-14T06:33:19.498Z,4.17
2018-06-14T06:35:50.506Z,5.00
2018-06-14T06:38:20.886Z,7.80
2018-06-14T06:40:51.261Z,5.87
2018-06-14T06:43:21.665Z,4.97
2018-06-14T06:45:51.973Z,4.63
2018-06-14T06:48:22.292Z,5.73
2018-06-14T06:50:52.701Z,7.17
2018-06-14T06:53:44.429Z,8.23
2018-06-14T06:56:14.823Z,4.70
2018-06-14T06:58:45.254Z,3.70
2018-06-14T07:01:15.563Z,3.53
2018-06-14T07:03:46.723Z,6.20
2018-06-14T07:06:17.260Z,6.07
2018-06-14T07:08:47.473Z,3.93
2018-06-14T07:11:17.875Z,4.23
2018-06-14T07:13:48.432Z,3.80
2018-06-14T07:16:18.800Z,4.03
2018-06-14T07:18:49.201Z,3.17
2018-06-14T07:21:26.721Z,3.80
2018-06-14T07:23:57.242Z,4.27
2018-06-14T07:26:27.616Z,4.30
2018-06-14T07:28:58.751Z,4.37
2018-06-14T07:31:29.147Z,5.40
2018-06-14T07:33:59.515Z,5.67
2018-06-14T07:36:29.882Z,3.73
2018-06-14T07:39:04.377Z,3.53
2018-06-14T07:41:34.744Z,4.93
2018-06-14T07:44:05.120Z,4.30
2018-06-14T07:46:35.519Z,3.90
2018-06-14T07:49:05.828Z,4.43
2018-06-14T07:51:36.202Z,3.47
2018-06-14T07:54:06.662Z,5.77
2018-06-14T07:56:36.993Z,4.60
2018-06-14T07:59:12.476Z,4.47
2018-06-14T08:01:42.880Z,4.70
2018-06-14T08:04:13.248Z,3.93
2018-06-14T08:06:43.617Z,5.13
2018-06-14T08:09:14.021Z,4.83
2018-06-14T08:11:44.420Z,4.00
2018-06-14T08:14:15.559Z,5.73
2018-06-14T08:16:46.724Z,4.03
2018-06-14T08:19:17.096Z,3.40
2018-06-14T08:21:47.467Z,3.90
2018-06-14T08:24:18.653Z,5.30
2018-06-14T08:26:56.341Z,3.80
2018-06-14T08:29:28.778Z,4.57
2018-06-14T08:31:59.910Z,7.07
2018-06-14T08:34:31.053Z,5.50
2018-06-14T08:37:03.492Z,4.00
2018-06-14T08:39:34.883Z,5.80
2018-06-14T08:42:05.256Z,5.67
2018-06-14T08:44:37.691Z,3.73
2018-06-14T08:47:08.835Z,4.67
2018-06-14T08:49:39.969Z,4.37
2018-06-14T08:52:11.125Z,4.30
2018-06-14T08:54:42.269Z,5.57
2018-06-14T08:57:12.658Z,6.33
2018-06-14T08:59:43.046Z,6.73
2018-06-14T09:02:13.424Z,4.20
2018-06-14T09:04:43.797Z,4.07
2018-06-14T09:07:14.192Z,3.87
2018-06-14T09:12:33.068Z,4.40
2018-06-14T09:15:04.200Z,5.37
2018-06-14T09:17:34.575Z,4.70
2018-06-14T09:20:04.950Z,5.23
2018-06-14T09:22:35.319Z,5.87
2018-06-14T09:25:05.689Z,5.53
2018-06-14T09:27:36.082Z,6.30
2018-06-14T09:30:06.454Z,5.60
2018-06-14T09:32:37.030Z,4.10
2018-06-14T09:35:07.409Z,3.80
2018-06-14T09:37:37.972Z,4.73
2018-06-14T09:40:08.342Z,4.10
2018-06-14T09:43:01.037Z,5.13
2018-06-14T09:45:32.254Z,4.60
2018-06-14T09:48:02.621Z,6.33
2018-06-14T09:50:33.016Z,4.17
2018-06-14T09:53:04.403Z,3.93
2018-06-14T09:55:35.508Z,4.10
2018-06-14T09:58:07.571Z,4.13
2018-06-14T10:00:37.948Z,4.33
2018-06-14T10:03:08.328Z,4.17
2018-06-14T10:05:38.724Z,5.37
2018-06-14T10:08:09.103Z,4.30
2018-06-14T10:10:40.245Z,7.63
2018-06-14T10:13:10.640Z,5.33
2018-06-14T10:15:41.012Z,7.33
2018-06-14T10:18:11.377Z,5.33
2018-06-14T10:20:42.811Z,5.70
2018-06-14T10:23:17.216Z,4.90
2018-06-14T10:25:47.619Z,4.33
2018-06-14T10:28:18.948Z,4.00
2018-06-14T10:30:49.323Z,3.90
2018-06-14T10:33:19.715Z,5.40
2018-06-14T10:35:50.857Z,5.90
2018-06-14T10:38:21.230Z,5.13
2018-06-14T10:40:52.653Z,4.90
2018-06-14T10:43:23.038Z,6.13
2018-06-14T10:45:53.411Z,4.47
2018-06-14T10:48:23.814Z,4.27
2018-06-14T10:50:54.185Z,5.53
2018-06-14T10:53:26.602Z,5.77
2018-06-14T10:55:57.012Z,5.87
2018-06-14T10:58:27.395Z,5.23
2018-06-14T11:00:57.769Z,5.10
2018-06-14T11:03:28.356Z,5.23
2018-06-14T11:05:58.918Z,5.50
2018-06-14T11:08:31.327Z,4.53
2018-06-14T11:11:02.437Z,4.90
2018-06-14T11:13:54.209Z,5.10
2018-06-14T11:16:25.376Z,4.37
2018-06-14T11:18:55.743Z,4.63
2018-06-14T11:21:26.120Z,4.17
2018-06-14T11:23:57.276Z,4.77
2018-06-14T11:26:27.638Z,4.70
2018-06-14T11:28:57.940Z,4.60
2018-06-14T11:31:34.472Z,6.20
2018-06-14T11:34:05.809Z,5.17
2018-06-14T11:36:36.177Z,5.60
2018-06-14T11:39:06.765Z,6.37
2018-06-14T11:41:37.904Z,4.50
2018-06-14T11:44:08.280Z,6.40
2018-06-14T11:46:40.720Z,6.50
2018-06-14T11:49:11.854Z,4.93
2018-06-14T11:51:43.003Z,6.00
2018-06-14T11:54:13.426Z,4.60
2018-06-14T11:56:43.788Z,5.50
2018-06-14T11:59:14.148Z,4.20
2018-06-14T12:01:44.510Z,6.37
2018-06-14T12:04:14.867Z,6.40
2018-06-14T12:06:45.244Z,6.07
2018-06-14T12:09:15.652Z,5.50
2018-06-14T12:11:46.029Z,4.73
2018-06-14T12:14:16.410Z,7.40
2018-06-14T12:16:47.000Z,5.00
2018-06-14T12:19:19.421Z,5.90
2018-06-14T12:21:49.802Z,6.77
2018-06-14T12:24:20.200Z,4.97
2018-06-14T12:26:51.339Z,6.90
2018-06-14T12:29:22.728Z,7.07
2018-06-14T12:31:53.125Z,8.33
2018-06-14T12:34:23.501Z,9.10
2018-06-14T12:36:54.897Z,5.37
2018-06-14T12:39:26.012Z,6.57
2018-06-14T12:41:57.416Z,5.73
2018-06-14T12:44:27.783Z,7.13
2018-06-14T12:46:58.188Z,7.97
2018-06-14T12:49:34.709Z,7.57
2018-06-14T12:52:05.110Z,10.20
2018-06-14T12:54:35.554Z,9.17
2018-06-14T12:57:05.857Z,5.50
2018-06-14T12:59:36.266Z,7.90
2018-06-14T13:02:14.149Z,7.37
2018-06-14T13:04:44.494Z,9.57
2018-06-14T13:07:14.857Z,7.97
2018-06-14T13:09:45.226Z,8.13
2018-06-14T13:12:15.633Z,8.23
2018-06-14T13:14:46.779Z,8.73
2018-06-14T13:17:17.917Z,9.07
2018-06-14T13:19:49.022Z,8.17
2018-06-14T13:22:19.385Z,8.33
2018-06-14T13:24:50.520Z,9.07
2018-06-14T13:30:29.964Z,8.47
2018-06-14T13:33:00.348Z,7.47
2018-06-14T13:35:30.732Z,8.37
2018-06-14T13:38:01.097Z,8.40
2018-06-14T13:40:31.491Z,10.40
2018-06-14T13:43:02.635Z,9.70
2018-06-14T13:45:33.771Z,8.33
2018-06-14T13:48:04.171Z,10.07
2018-06-14T13:50:34.554Z,10.00
2018-06-14T13:53:04.916Z,11.33
2018-06-14T13:55:35.463Z,6.63
2018-06-14T13:58:05.703Z,9.17
2018-06-14T14:00:36.077Z,9.33
2018-06-14T14:03:06.476Z,8.67
2018-06-14T14:05:37.599Z,11.50
2018-06-14T14:08:07.965Z,9.30
2018-06-14T14:10:38.373Z,7.50
2018-06-14T14:13:08.741Z,7.10
2018-06-14T14:15:45.255Z,8.70
2018-06-14T14:18:16.387Z,8.13
2018-06-14T14:20:46.755Z,9.33
2018-06-14T14:23:17.156Z,11.00
2018-06-14T14:25:48.289Z,9.37
2018-06-14T14:28:18.656Z,9.00
2018-06-14T14:30:48.993Z,10.43
2018-06-14T14:33:21.415Z,9.77
2018-06-14T14:35:51.781Z,7.30
2018-06-14T14:38:22.172Z,9.20
2018-06-14T14:40:53.309Z,7.37
2018-06-14T14:43:23.672Z,7.07
2018-06-14T14:45:54.072Z,8.00
2018-06-14T14:48:24.433Z,8.30
2018-06-14T14:50:54.781Z,8.97
2018-06-14T14:53:30.293Z,8.27
2018-06-14T14:56:00.659Z,7.57
2018-06-14T14:58:31.093Z,7.67
2018-06-14T15:01:01.424Z,7.20
2018-06-14T15:03:31.788Z,8.00
2018-06-14T15:06:02.162Z,8.67
2018-06-14T15:08:33.572Z,10.00
2018-06-14T15:11:03.940Z,11.17
2018-06-14T15:13:34.297Z,8.67
2018-06-14T15:16:05.467Z,7.30
2018-06-14T15:18:35.832Z,7.23
2018-06-14T15:21:06.210Z,8.43
2018-06-14T15:23:37.367Z,10.00
2018-06-14T15:26:07.747Z,9.27
2018-06-14T15:28:38.113Z,7.63
2018-06-14T15:31:11.469Z,9.20
2018-06-14T15:33:41.824Z,8.17
2018-06-14T15:36:12.148Z,9.40
2018-06-14T15:38:45.030Z,9.90
2018-06-14T15:41:18.912Z,6.60
2018-06-14T15:43:52.117Z,8.00
2018-06-14T15:46:22.483Z,8.87
2018-06-14T15:48:53.934Z,8.33
2018-06-14T15:51:24.279Z,9.00
2018-06-14T15:54:14.067Z,18.63
2018-06-14T15:56:45.196Z,13.17
2018-06-14T15:59:17.617Z,8.03
2018-06-14T16:01:48.763Z,9.40
2018-06-14T16:04:19.156Z,9.30
2018-06-14T16:06:56.422Z,11.57
2018-06-14T16:09:26.820Z,10.43
2018-06-14T16:11:57.895Z,9.80
2018-06-14T16:14:32.369Z,6.93
2018-06-14T16:17:02.763Z,8.10
2018-06-14T16:19:35.178Z,6.77
2018-06-14T16:22:06.323Z,10.10
2018-06-14T16:24:36.728Z,10.52
2018-06-14T16:27:07.100Z,7.43
2018-06-14T16:29:37.479Z,8.55
2018-06-14T16:32:10.992Z,6.50
2018-06-14T16:34:43.056Z,6.53
2018-06-14T16:37:13.436Z,6.03
2018-06-14T16:39:43.833Z,8.53
2018-06-14T16:42:15.159Z,6.50
2018-06-14T16:44:45.546Z,6.07
2018-06-14T16:47:23.254Z,6.33
2018-06-14T16:50:15.637Z,8.03
2018-06-14T16:52:46.804Z,6.50
2018-06-14T16:58:07.145Z,7.53
2018-06-14T17:00:44.844Z,9.50
2018-06-14T17:03:24.457Z,4.90
2018-06-14T17:05:54.836Z,4.53
2018-06-14T17:08:25.209Z,5.90
2018-06-14T17:11:03.418Z,6.67
2018-06-14T17:13:36.256Z,5.17
2018-06-14T17:16:06.633Z,4.93
2018-06-14T17:18:37.024Z,4.60
2018-06-14T17:21:07.395Z,4.80
2018-06-14T17:23:40.635Z,5.93
2018-06-14T17:26:10.972Z,4.83
2018-06-14T17:28:41.350Z,4.80
2018-06-14T17:31:15.808Z,5.07
2018-06-14T17:33:47.172Z,4.23
2018-06-14T17:36:20.911Z,7.00
2018-06-14T17:38:52.048Z,4.43
2018-06-14T17:41:30.185Z,4.73
2018-06-14T17:44:00.409Z,5.40
2018-06-14T17:46:32.815Z,6.27
2018-06-14T17:49:03.141Z,4.77
2018-06-14T17:51:33.454Z,5.80
2018-06-14T17:54:06.322Z,5.30
2018-06-14T17:56:39.724Z,6.53
2018-06-14T17:59:10.097Z,6.13
2018-06-14T18:01:41.241Z,5.13
2018-06-14T18:04:14.108Z,4.73
2018-06-14T18:06:44.489Z,6.10
2018-06-14T18:09:22.377Z,8.57
2018-06-14T18:11:52.752Z,6.20
2018-06-14T18:14:23.121Z,7.57
2018-06-14T18:16:56.149Z,5.33
2018-06-14T18:19:27.214Z,5.67
2018-06-14T18:22:00.406Z,6.07
2018-06-14T18:24:30.803Z,7.20
2018-06-14T18:27:06.147Z,4.90
2018-06-14T18:29:36.546Z,8.30
2018-06-14T18:32:10.181Z,5.80
2018-06-14T18:34:43.247Z,4.73
2018-06-14T18:37:13.617Z,5.73
2018-06-14T18:39:44.016Z,5.37
2018-06-14T18:42:17.447Z,6.97
2018-06-14T18:44:47.828Z,5.93
2018-06-14T18:47:23.338Z,5.53
2018-06-14T18:49:54.479Z,6.10
2018-06-14T18:52:25.552Z,6.83
2018-06-14T18:54:58.924Z,5.93
2018-06-14T18:57:31.208Z,4.50
2018-06-14T19:00:01.583Z,7.53
2018-06-14T19:02:31.979Z,6.57
2018-06-14T19:05:02.359Z,4.53
2018-06-14T19:07:33.500Z,6.93
2018-06-14T19:10:03.891Z,4.93
2018-06-14T19:12:57.424Z,5.47
2018-06-14T19:15:28.588Z,6.80
2018-06-14T19:18:02.985Z,6.57
2018-06-14T19:23:22.571Z,6.93
2018-06-14T19:25:53.714Z,5.93
2018-06-14T19:28:27.542Z,4.90
2018-06-14T19:30:57.862Z,7.80
2018-06-14T19:33:33.777Z,4.80
2018-06-14T19:36:07.399Z,4.73
2018-06-14T19:38:38.423Z,5.33
2018-06-14T19:41:09.566Z,8.10
2018-06-14T19:43:43.036Z,5.80
2018-06-14T19:46:36.326Z,4.80
2018-06-14T19:49:06.692Z,7.27
2018-06-14T19:51:38.852Z,6.13
2018-06-14T19:54:10.025Z,5.67
2018-06-14T19:56:42.447Z,4.73
2018-06-14T19:59:12.825Z,5.33
2018-06-14T20:01:45.276Z,5.30
2018-06-14T20:04:18.370Z,7.73
2018-06-14T20:06:48.742Z,4.67
2018-06-14T20:09:19.141Z,6.80
2018-06-14T20:11:49.513Z,4.63
2018-06-14T20:14:19.892Z,6.43
2018-06-14T20:16:50.225Z,5.97
2018-06-14T20:19:39.698Z,5.23
2018-06-14T20:22:16.238Z,4.87
2018-06-14T20:24:52.715Z,5.97
2018-06-14T20:27:23.118Z,4.83
2018-06-14T20:29:57.027Z,4.67
2018-06-14T20:32:28.171Z,5.03
2018-06-14T20:35:02.372Z,6.20
2018-06-14T20:37:33.664Z,6.30
2018-06-14T20:40:04.036Z,7.07
2018-06-14T20:42:34.432Z,4.77
2018-06-14T20:45:04.798Z,4.40
2018-06-14T20:47:35.188Z,5.70
2018-06-14T20:50:08.397Z,4.90
2018-06-14T20:53:02.091Z,6.67
2018-06-14T20:55:34.538Z,5.27
2018-06-14T20:58:06.913Z,4.30
2018-06-14T21:00:40.376Z,5.97
2018-06-14T21:03:13.222Z,6.70
2018-06-14T21:05:43.605Z,5.07
2018-06-14T21:08:18.755Z,6.07
2018-06-14T21:10:56.440Z,5.47
2018-06-14T21:13:28.894Z,5.83
2018-06-14T21:15:59.272Z,6.57
2018-06-14T21:18:29.645Z,6.00
2018-06-14T21:20:59.983Z,5.57
2018-06-14T21:23:30.361Z,6.43
2018-06-14T21:26:00.733Z,4.73
2018-06-14T21:28:31.080Z,4.87
2018-06-14T21:31:20.558Z,5.27
2018-06-14T21:33:52.997Z,6.60
2018-06-14T21:36:23.373Z,5.43
2018-06-14T21:38:53.748Z,6.90
2018-06-14T21:41:24.147Z,6.63
2018-06-14T21:43:56.560Z,5.53
2018-06-14T21:46:26.937Z,8.40
2018-06-14T21:48:57.334Z,5.97
2018-06-14T21:51:27.651Z,5.97
2018-06-14T21:53:58.017Z,6.93
2018-06-14T21:56:28.418Z,5.27
2018-06-14T21:59:05.944Z,5.80
2018-06-14T22:01:37.359Z,5.17
2018-06-14T22:04:15.834Z,6.80
2018-06-14T22:09:39.596Z,5.60
2018-06-14T22:12:09.992Z,4.83
2018-06-14T22:14:42.412Z,6.30
2018-06-14T22:17:12.718Z,7.57
2018-06-14T22:19:43.118Z,5.37
2018-06-14T22:22:17.580Z,7.20
2018-06-14T22:24:47.921Z,5.87
2018-06-14T22:27:18.997Z,7.70
2018-06-14T22:29:49.371Z,5.90
2018-06-14T22:32:19.777Z,5.83
2018-06-14T22:35:07.281Z,6.70
2018-06-14T22:37:39.727Z,5.57
2018-06-14T22:40:10.105Z,6.53
2018-06-14T22:42:41.511Z,5.43
2018-06-14T22:45:11.915Z,5.83
2018-06-14T22:47:43.046Z,8.87
2018-06-14T22:50:13.417Z,6.30
2018-06-14T22:52:43.821Z,6.67
2018-06-14T22:55:14.952Z,7.13
2018-06-14T22:57:45.266Z,5.73
2018-06-14T23:00:15.659Z,4.83
2018-06-14T23:03:08.150Z,7.43
2018-06-14T23:05:39.324Z,8.73
2018-06-14T23:08:10.748Z,7.57
2018-06-14T23:11:16.986Z,7.63
2018-06-14T23:13:47.356Z,7.37
2018-06-14T23:16:17.732Z,5.40
2018-06-14T23:18:48.124Z,8.87
2018-06-14T23:21:18.505Z,6.67
2018-06-14T23:23:48.872Z,6.60
2018-06-14T23:26:19.287Z,7.20
2018-06-14T23:28:50.427Z,5.90
2018-06-14T23:31:21.500Z,5.73
2018-06-14T23:33:51.904Z,7.30
2018-06-14T23:36:24.327Z,7.87
2018-06-14T23:38:54.700Z,6.50
2018-06-14T23:41:25.288Z,6.90
2018-06-14T23:43:55.663Z,5.53
2018-06-14T23:46:26.036Z,6.60
2018-06-14T23:48:56.434Z,6.87
2018-06-14T23:51:26.800Z,6.57
2018-06-14T23:53:57.168Z,6.70
2018-06-14T23:56:27.571Z,5.43
2018-06-14T23:58:59.989Z,7.63
